sensor_id;sensor_type;location;lat;lon;timestamp;pressure;altitude;pressure_sealevel;temperature;humidity
70730;BME280;58315;53.336;55.932;2023-03-03T00:00:52;98701.28;;;-5.31;54.18
70730;BME280;58315;53.336;55.932;2023-03-03T00:03:21;98701.28;;;-5.31;54.31
70730;BME280;58315;53.336;55.932;2023-03-03T00:05:48;98701.53;;;-5.38;53.80
70730;BME280;58315;53.336;55.932;2023-03-03T00:08:15;98703.47;;;-5.43;53.58
70730;BME280;58315;53.336;55.932;2023-03-03T00:10:41;98718.06;;;-5.43;53.94
70730;BME280;58315;53.336;55.932;2023-03-03T00:13:19;98719.56;;;-5.38;54.00
70730;BME280;58315;53.336;55.932;2023-03-03T00:15:46;98717.34;;;-5.47;54.02
70730;BME280;58315;53.336;55.932;2023-03-03T00:18:42;98721.41;;;-5.41;53.75
70730;BME280;58315;53.336;55.932;2023-03-03T00:21:42;98726.75;;;-5.46;54.38
70730;BME280;58315;53.336;55.932;2023-03-03T00:26:41;98734.25;;;-5.40;54.33
70730;BME280;58315;53.336;55.932;2023-03-03T00:29:30;98732.91;;;-5.28;54.33
70730;BME280;58315;53.336;55.932;2023-03-03T00:34:49;98736.31;;;-5.27;54.16
70730;BME280;58315;53.336;55.932;2023-03-03T00:37:31;98735.84;;;-5.15;54.31
70730;BME280;58315;53.336;55.932;2023-03-03T00:42:48;98741.34;;;-5.02;54.11
70730;BME280;58315;53.336;55.932;2023-03-03T00:45:43;98748.63;;;-4.92;53.77
70730;BME280;58315;53.336;55.932;2023-03-03T00:50:53;98750.31;;;-4.91;53.56
70730;BME280;58315;53.336;55.932;2023-03-03T00:53:21;98754.59;;;-4.90;54.04
70730;BME280;58315;53.336;55.932;2023-03-03T00:55:49;98758.59;;;-4.82;53.75
70730;BME280;58315;53.336;55.932;2023-03-03T00:58:17;98765.41;;;-4.81;53.66
70730;BME280;58315;53.336;55.932;2023-03-03T01:00:47;98769.41;;;-4.74;53.08
70730;BME280;58315;53.336;55.932;2023-03-03T01:03:19;98775.06;;;-4.87;52.78
70730;BME280;58315;53.336;55.932;2023-03-03T01:05:46;98781.19;;;-4.89;52.89
70730;BME280;58315;53.336;55.932;2023-03-03T01:08:13;98784.59;;;-4.89;52.76
70730;BME280;58315;53.336;55.932;2023-03-03T01:10:43;98780.09;;;-4.83;52.51
70730;BME280;58315;53.336;55.932;2023-03-03T01:13:11;98784.19;;;-5.00;52.86
70730;BME280;58315;53.336;55.932;2023-03-03T01:15:38;98786.66;;;-4.97;52.80
70730;BME280;58315;53.336;55.932;2023-03-03T01:18:05;98793.66;;;-5.00;53.07
70730;BME280;58315;53.336;55.932;2023-03-03T01:20:31;98792.03;;;-5.03;52.59
70730;BME280;58315;53.336;55.932;2023-03-03T01:22:57;98801.97;;;-4.94;52.90
70730;BME280;58315;53.336;55.932;2023-03-03T01:25:23;98795.81;;;-4.90;52.43
70730;BME280;58315;53.336;55.932;2023-03-03T01:27:49;98800.19;;;-4.92;52.77
70730;BME280;58315;53.336;55.932;2023-03-03T01:30:17;98803.66;;;-4.93;52.13
70730;BME280;58315;53.336;55.932;2023-03-03T01:32:43;98800.28;;;-4.95;52.37
70730;BME280;58315;53.336;55.932;2023-03-03T01:35:09;98802.63;;;-4.89;52.47
70730;BME280;58315;53.336;55.932;2023-03-03T01:37:35;98803.97;;;-5.00;51.98
70730;BME280;58315;53.336;55.932;2023-03-03T01:40:06;98803.00;;;-4.98;52.44
70730;BME280;58315;53.336;55.932;2023-03-03T01:42:33;98807.41;;;-5.01;52.10
70730;BME280;58315;53.336;55.932;2023-03-03T01:50:47;98810.91;;;-5.24;52.14
70730;BME280;58315;53.336;55.932;2023-03-03T01:53:16;98808.28;;;-5.23;52.23
70730;BME280;58315;53.336;55.932;2023-03-03T01:55:44;98821.94;;;-5.21;51.92
70730;BME280;58315;53.336;55.932;2023-03-03T01:58:16;98811.50;;;-5.18;51.58
70730;BME280;58315;53.336;55.932;2023-03-03T02:00:49;98807.31;;;-5.20;51.63
70730;BME280;58315;53.336;55.932;2023-03-03T02:03:19;98821.09;;;-5.21;51.43
70730;BME280;58315;53.336;55.932;2023-03-03T02:05:46;98825.53;;;-5.25;51.15
70730;BME280;58315;53.336;55.932;2023-03-03T02:08:15;98827.47;;;-5.31;51.04
70730;BME280;58315;53.336;55.932;2023-03-03T02:10:44;98836.41;;;-5.40;51.45
70730;BME280;58315;53.336;55.932;2023-03-03T02:13:11;98833.78;;;-5.62;51.30
70730;BME280;58315;53.336;55.932;2023-03-03T02:15:37;98834.53;;;-5.60;51.23
70730;BME280;58315;53.336;55.932;2023-03-03T02:18:09;98835.06;;;-5.50;51.13
70730;BME280;58315;53.336;55.932;2023-03-03T02:28:34;98835.56;;;-5.64;51.18
70730;BME280;58315;53.336;55.932;2023-03-03T02:31:07;98843.63;;;-5.73;51.30
70730;BME280;58315;53.336;55.932;2023-03-03T02:33:38;98843.09;;;-5.83;51.18
70730;BME280;58315;53.336;55.932;2023-03-03T02:36:08;98852.56;;;-5.84;50.83
70730;BME280;58315;53.336;55.932;2023-03-03T02:43:58;98860.16;;;-6.04;51.08
70730;BME280;58315;53.336;55.932;2023-03-03T02:46:25;98862.72;;;-6.04;50.88
70730;BME280;58315;53.336;55.932;2023-03-03T02:48:51;98859.50;;;-6.09;50.93
70730;BME280;58315;53.336;55.932;2023-03-03T02:51:17;98862.69;;;-6.02;51.36
70730;BME280;58315;53.336;55.932;2023-03-03T02:53:44;98862.53;;;-5.98;50.97
70730;BME280;58315;53.336;55.932;2023-03-03T02:56:10;98865.53;;;-6.10;50.93
70730;BME280;58315;53.336;55.932;2023-03-03T02:58:36;98867.84;;;-6.02;50.97
70730;BME280;58315;53.336;55.932;2023-03-03T03:01:03;98871.34;;;-6.05;50.80
70730;BME280;58315;53.336;55.932;2023-03-03T03:03:29;98865.53;;;-6.10;50.79
70730;BME280;58315;53.336;55.932;2023-03-03T03:05:55;98880.00;;;-6.08;50.76
70730;BME280;58315;53.336;55.932;2023-03-03T03:08:24;98882.44;;;-6.03;50.59
70730;BME280;58315;53.336;55.932;2023-03-03T03:10:50;98886.97;;;-6.11;50.12
70730;BME280;58315;53.336;55.932;2023-03-03T03:13:16;98886.88;;;-6.08;50.20
70730;BME280;58315;53.336;55.932;2023-03-03T03:15:46;98890.16;;;-6.03;49.97
70730;BME280;58315;53.336;55.932;2023-03-03T03:18:13;98889.03;;;-6.21;50.07
70730;BME280;58315;53.336;55.932;2023-03-03T03:20:42;98888.03;;;-6.17;49.95
70730;BME280;58315;53.336;55.932;2023-03-03T03:23:09;98887.13;;;-6.16;50.08
70730;BME280;58315;53.336;55.932;2023-03-03T03:25:36;98893.03;;;-6.12;50.31
70730;BME280;58315;53.336;55.932;2023-03-03T03:28:15;98898.06;;;-6.09;50.07
70730;BME280;58315;53.336;55.932;2023-03-03T03:30:42;98900.94;;;-6.18;50.03
70730;BME280;58315;53.336;55.932;2023-03-03T03:33:10;98907.81;;;-6.19;50.00
70730;BME280;58315;53.336;55.932;2023-03-03T03:35:36;98911.94;;;-6.13;49.77
70730;BME280;58315;53.336;55.932;2023-03-03T03:38:03;98914.75;;;-6.21;50.23
70730;BME280;58315;53.336;55.932;2023-03-03T03:40:32;98922.22;;;-6.13;50.30
70730;BME280;58315;53.336;55.932;2023-03-03T03:42:58;98920.91;;;-6.00;50.09
70730;BME280;58315;53.336;55.932;2023-03-03T03:45:24;98923.47;;;-6.00;49.38
70730;BME280;58315;53.336;55.932;2023-03-03T03:47:50;98917.75;;;-6.08;49.85
70730;BME280;58315;53.336;55.932;2023-03-03T03:50:17;98922.84;;;-6.07;49.64
70730;BME280;58315;53.336;55.932;2023-03-03T03:52:43;98938.13;;;-6.02;49.73
70730;BME280;58315;53.336;55.932;2023-03-03T03:55:10;98935.66;;;-6.05;49.47
70730;BME280;58315;53.336;55.932;2023-03-03T03:57:38;98936.00;;;-6.16;49.27
70730;BME280;58315;53.336;55.932;2023-03-03T04:00:05;98945.19;;;-6.09;49.52
70730;BME280;58315;53.336;55.932;2023-03-03T04:02:39;98942.00;;;-6.15;49.35
70730;BME280;58315;53.336;55.932;2023-03-03T04:05:09;98948.13;;;-6.19;48.88
70730;BME280;58315;53.336;55.932;2023-03-03T04:07:36;98954.41;;;-6.28;49.15
70730;BME280;58315;53.336;55.932;2023-03-03T04:10:03;98955.34;;;-6.31;48.65
70730;BME280;58315;53.336;55.932;2023-03-03T04:12:29;98962.06;;;-6.55;49.35
70730;BME280;58315;53.336;55.932;2023-03-03T04:15:04;98960.34;;;-6.26;49.50
70730;BME280;58315;53.336;55.932;2023-03-03T04:17:34;98964.63;;;-6.00;49.55
70730;BME280;58315;53.336;55.932;2023-03-03T04:20:05;98963.22;;;-5.84;49.36
70730;BME280;58315;53.336;55.932;2023-03-03T04:22:32;98965.34;;;-5.71;48.70
70730;BME280;58315;53.336;55.932;2023-03-03T04:25:04;98968.50;;;-5.63;48.79
70730;BME280;58315;53.336;55.932;2023-03-03T04:27:36;98964.72;;;-5.53;48.49
70730;BME280;58315;53.336;55.932;2023-03-03T04:30:06;98964.50;;;-5.22;48.48
70730;BME280;58315;53.336;55.932;2023-03-03T04:32:32;98968.69;;;-4.96;48.17
70730;BME280;58315;53.336;55.932;2023-03-03T04:35:01;98972.03;;;-4.94;47.43
70730;BME280;58315;53.336;55.932;2023-03-03T04:37:29;98982.25;;;-4.67;47.68
70730;BME280;58315;53.336;55.932;2023-03-03T04:39:56;98988.59;;;-4.54;47.07
70730;BME280;58315;53.336;55.932;2023-03-03T04:42:22;98990.00;;;-4.69;46.76
70730;BME280;58315;53.336;55.932;2023-03-03T04:44:48;98991.72;;;-4.68;47.18
70730;BME280;58315;53.336;55.932;2023-03-03T04:47:14;98997.34;;;-4.58;47.23
70730;BME280;58315;53.336;55.932;2023-03-03T04:49:40;98995.34;;;-4.73;46.72
70730;BME280;58315;53.336;55.932;2023-03-03T04:52:07;99001.41;;;-4.74;47.12
70730;BME280;58315;53.336;55.932;2023-03-03T04:54:33;99003.69;;;-4.67;47.35
70730;BME280;58315;53.336;55.932;2023-03-03T04:56:59;99010.69;;;-4.70;47.37
70730;BME280;58315;53.336;55.932;2023-03-03T04:59:25;99004.59;;;-4.68;47.63
70730;BME280;58315;53.336;55.932;2023-03-03T05:01:52;99002.69;;;-4.63;47.57
70730;BME280;58315;53.336;55.932;2023-03-03T05:04:18;99005.41;;;-4.44;47.56
70730;BME280;58315;53.336;55.932;2023-03-03T05:06:44;99013.03;;;-4.41;47.75
70730;BME280;58315;53.336;55.932;2023-03-03T05:09:10;99011.22;;;-4.39;47.41
70730;BME280;58315;53.336;55.932;2023-03-03T05:11:35;99014.28;;;-4.07;47.55
70730;BME280;58315;53.336;55.932;2023-03-03T05:14:01;99011.75;;;-3.86;47.52
70730;BME280;58315;53.336;55.932;2023-03-03T05:16:28;99017.31;;;-3.55;46.91
70730;BME280;58315;53.336;55.932;2023-03-03T05:18:54;99020.94;;;-3.59;46.36
70730;BME280;58315;53.336;55.932;2023-03-03T05:21:20;99025.75;;;-3.51;46.75
70730;BME280;58315;53.336;55.932;2023-03-03T05:23:47;99040.09;;;-3.44;46.24
70730;BME280;58315;53.336;55.932;2023-03-03T05:26:13;99036.31;;;-3.35;46.42
70730;BME280;58315;53.336;55.932;2023-03-03T05:28:39;99026.38;;;-3.24;45.95
70730;BME280;58315;53.336;55.932;2023-03-03T05:31:05;99026.31;;;-3.04;45.86
70730;BME280;58315;53.336;55.932;2023-03-03T05:33:31;99027.56;;;-2.73;45.63
70730;BME280;58315;53.336;55.932;2023-03-03T05:35:57;99022.44;;;-2.18;45.34
70730;BME280;58315;53.336;55.932;2023-03-03T05:38:24;99022.13;;;-1.76;44.71
70730;BME280;58315;53.336;55.932;2023-03-03T05:40:50;99031.19;;;-1.32;43.92
70730;BME280;58315;53.336;55.932;2023-03-03T05:43:16;99032.56;;;-1.25;43.58
70730;BME280;58315;53.336;55.932;2023-03-03T05:45:42;99023.03;;;-1.25;43.89
70730;BME280;58315;53.336;55.932;2023-03-03T05:48:08;99024.78;;;-1.08;43.84
70730;BME280;58315;53.336;55.932;2023-03-03T05:50:36;99032.94;;;-0.82;43.36
70730;BME280;58315;53.336;55.932;2023-03-03T05:53:03;99033.50;;;-0.60;43.45
70730;BME280;58315;53.336;55.932;2023-03-03T05:55:29;99030.88;;;-0.76;42.50
70730;BME280;58315;53.336;55.932;2023-03-03T05:57:55;99032.25;;;-1.02;43.55
70730;BME280;58315;53.336;55.932;2023-03-03T06:00:21;99030.94;;;-1.10;43.60
70730;BME280;58315;53.336;55.932;2023-03-03T06:02:47;99033.09;;;-1.18;43.42
70730;BME280;58315;53.336;55.932;2023-03-03T06:05:13;99037.06;;;-1.29;43.30
70730;BME280;58315;53.336;55.932;2023-03-03T06:07:39;99042.72;;;-1.38;43.98
70730;BME280;58315;53.336;55.932;2023-03-03T06:10:06;99031.34;;;-1.35;43.70
70730;BME280;58315;53.336;55.932;2023-03-03T06:12:35;99034.25;;;-1.59;43.41
70730;BME280;58315;53.336;55.932;2023-03-03T06:15:02;99048.56;;;-1.69;43.88
70730;BME280;58315;53.336;55.932;2023-03-03T06:17:30;99046.28;;;-1.75;44.42
70730;BME280;58315;53.336;55.932;2023-03-03T06:19:56;99045.97;;;-1.86;44.49
70730;BME280;58315;53.336;55.932;2023-03-03T06:22:22;99046.91;;;-1.70;45.28
70730;BME280;58315;53.336;55.932;2023-03-03T06:24:48;99047.56;;;-1.84;45.21
70730;BME280;58315;53.336;55.932;2023-03-03T06:27:14;99048.94;;;-1.77;45.23
70730;BME280;58315;53.336;55.932;2023-03-03T06:29:40;99055.88;;;-1.77;45.22
70730;BME280;58315;53.336;55.932;2023-03-03T06:32:06;99053.19;;;-1.76;45.43
70730;BME280;58315;53.336;55.932;2023-03-03T06:34:32;99054.53;;;-1.50;45.47
70730;BME280;58315;53.336;55.932;2023-03-03T06:36:58;99057.88;;;-1.48;46.10
70730;BME280;58315;53.336;55.932;2023-03-03T06:39:24;99051.78;;;-1.47;45.88
70730;BME280;58315;53.336;55.932;2023-03-03T06:41:50;99052.75;;;-1.32;45.77
70730;BME280;58315;53.336;55.932;2023-03-03T06:44:16;99053.69;;;-1.33;45.38
70730;BME280;58315;53.336;55.932;2023-03-03T06:46:42;99051.56;;;-1.42;46.20
70730;BME280;58315;53.336;55.932;2023-03-03T06:49:08;99052.53;;;-1.62;46.19
70730;BME280;58315;53.336;55.932;2023-03-03T06:51:36;99046.81;;;-1.51;46.36
70730;BME280;58315;53.336;55.932;2023-03-03T06:54:17;99052.41;;;-1.24;46.92
70730;BME280;58315;53.336;55.932;2023-03-03T06:56:44;99050.16;;;-1.14;46.73
70730;BME280;58315;53.336;55.932;2023-03-03T07:01:36;99040.91;;;-1.03;46.40
70730;BME280;58315;53.336;55.932;2023-03-03T07:04:26;99053.25;;;-0.73;47.10
70730;BME280;58315;53.336;55.932;2023-03-03T07:06:54;99047.81;;;-0.68;46.23
70730;BME280;58315;53.336;55.932;2023-03-03T07:09:31;99049.31;;;-0.64;46.32
70730;BME280;58315;53.336;55.932;2023-03-03T07:12:00;99055.75;;;-0.71;46.29
70730;BME280;58315;53.336;55.932;2023-03-03T07:14:28;99051.94;;;-0.82;46.26
70730;BME280;58315;53.336;55.932;2023-03-03T07:16:59;99054.25;;;-0.44;47.18
70730;BME280;58315;53.336;55.932;2023-03-03T07:19:33;99057.88;;;-0.31;46.60
70730;BME280;58315;53.336;55.932;2023-03-03T07:24:40;99058.75;;;-0.14;46.56
70730;BME280;58315;53.336;55.932;2023-03-03T07:27:13;99052.53;;;-0.12;46.17
70730;BME280;58315;53.336;55.932;2023-03-03T07:29:42;99060.56;;;-0.01;46.07
70730;BME280;58315;53.336;55.932;2023-03-03T07:32:49;99054.69;;;0.12;46.00
70730;BME280;58315;53.336;55.932;2023-03-03T07:35:36;99069.94;;;0.02;46.13
70730;BME280;58315;53.336;55.932;2023-03-03T07:38:39;99056.81;;;-0.11;46.49
70730;BME280;58315;53.336;55.932;2023-03-03T07:41:19;99060.00;;;-0.06;47.08
70730;BME280;58315;53.336;55.932;2023-03-03T07:43:51;99055.59;;;0.11;46.70
70730;BME280;58315;53.336;55.932;2023-03-03T07:46:27;99066.81;;;0.27;45.78
70730;BME280;58315;53.336;55.932;2023-03-03T07:48:56;99081.25;;;0.17;46.11
70730;BME280;58315;53.336;55.932;2023-03-03T07:51:26;99074.63;;;0.27;45.82
70730;BME280;58315;53.336;55.932;2023-03-03T07:53:59;99065.81;;;0.14;45.43
70730;BME280;58315;53.336;55.932;2023-03-03T07:56:29;99070.97;;;0.15;46.34
70730;BME280;58315;53.336;55.932;2023-03-03T07:58:59;99069.50;;;0.41;45.91
70730;BME280;58315;53.336;55.932;2023-03-03T08:01:38;99070.88;;;0.63;45.77
70730;BME280;58315;53.336;55.932;2023-03-03T08:04:18;99074.69;;;0.71;45.89
70730;BME280;58315;53.336;55.932;2023-03-03T08:06:50;99074.78;;;0.70;45.81
70730;BME280;58315;53.336;55.932;2023-03-03T08:11:52;99080.44;;;0.62;45.33
70730;BME280;58315;53.336;55.932;2023-03-03T08:14:24;99078.28;;;0.39;46.05
70730;BME280;58315;53.336;55.932;2023-03-03T08:16:50;99076.75;;;0.51;45.81
70730;BME280;58315;53.336;55.932;2023-03-03T08:19:16;99076.34;;;0.42;46.07
70730;BME280;58315;53.336;55.932;2023-03-03T08:21:43;99073.41;;;0.48;46.45
70730;BME280;58315;53.336;55.932;2023-03-03T08:24:09;99072.91;;;0.72;46.01
70730;BME280;58315;53.336;55.932;2023-03-03T08:26:35;99071.91;;;0.44;46.10
70730;BME280;58315;53.336;55.932;2023-03-03T08:29:01;99074.03;;;0.38;46.59
70730;BME280;58315;53.336;55.932;2023-03-03T08:31:27;99071.09;;;0.28;47.10
70730;BME280;58315;53.336;55.932;2023-03-03T08:33:54;99069.81;;;0.35;46.92
70730;BME280;58315;53.336;55.932;2023-03-03T08:36:20;99072.88;;;0.58;46.74
70730;BME280;58315;53.336;55.932;2023-03-03T08:38:46;99066.78;;;0.73;46.60
70730;BME280;58315;53.336;55.932;2023-03-03T08:41:12;99061.63;;;1.02;46.97
70730;BME280;58315;53.336;55.932;2023-03-03T08:43:38;99064.63;;;0.95;46.27
70730;BME280;58315;53.336;55.932;2023-03-03T08:46:05;99062.94;;;1.09;46.24
70730;BME280;58315;53.336;55.932;2023-03-03T08:48:32;99055.50;;;0.88;46.32
70730;BME280;58315;53.336;55.932;2023-03-03T08:50:59;99060.41;;;0.79;46.43
70730;BME280;58315;53.336;55.932;2023-03-03T08:53:25;99062.91;;;0.80;46.75
70730;BME280;58315;53.336;55.932;2023-03-03T08:55:51;99050.31;;;0.88;46.50
70730;BME280;58315;53.336;55.932;2023-03-03T08:58:18;99049.06;;;0.80;46.58
70730;BME280;58315;53.336;55.932;2023-03-03T09:00:45;99053.03;;;0.71;47.25
70730;BME280;58315;53.336;55.932;2023-03-03T09:03:11;99057.94;;;0.61;47.43
70730;BME280;58315;53.336;55.932;2023-03-03T09:05:38;99048.97;;;0.67;46.72
70730;BME280;58315;53.336;55.932;2023-03-03T09:08:05;99047.03;;;0.55;46.82
70730;BME280;58315;53.336;55.932;2023-03-03T09:10:32;99044.16;;;0.45;47.15
70730;BME280;58315;53.336;55.932;2023-03-03T09:13:15;99041.38;;;0.48;47.39
70730;BME280;58315;53.336;55.932;2023-03-03T09:15:42;99034.19;;;0.37;47.97
70730;BME280;58315;53.336;55.932;2023-03-03T09:18:21;99048.00;;;-0.08;48.60
70730;BME280;58315;53.336;55.932;2023-03-03T09:20:49;99051.28;;;-0.20;49.23
70730;BME280;58315;53.336;55.932;2023-03-03T09:23:55;99046.81;;;-0.34;49.21
70730;BME280;58315;53.336;55.932;2023-03-03T09:26:24;99046.31;;;-0.41;49.50
70730;BME280;58315;53.336;55.932;2023-03-03T09:28:59;99045.16;;;-0.35;49.74
70730;BME280;58315;53.336;55.932;2023-03-03T09:31:41;99041.81;;;-0.21;49.90
70730;BME280;58315;53.336;55.932;2023-03-03T09:36:39;99040.63;;;-0.16;49.63
70730;BME280;58315;53.336;55.932;2023-03-03T09:45:12;99045.16;;;-0.04;49.44
70730;BME280;58315;53.336;55.932;2023-03-03T09:59:17;99043.88;;;0.04;49.60
70730;BME280;58315;53.336;55.932;2023-03-03T10:05:08;99045.81;;;-0.16;50.39
70730;BME280;58315;53.336;55.932;2023-03-03T10:07:52;99034.75;;;0.12;49.80
70730;BME280;58315;53.336;55.932;2023-03-03T10:18:59;99034.22;;;0.21;48.79
70730;BME280;58315;53.336;55.932;2023-03-03T10:21:38;99039.91;;;0.28;49.39
70730;BME280;58315;53.336;55.932;2023-03-03T10:24:30;99039.63;;;0.33;49.36
70730;BME280;58315;53.336;55.932;2023-03-03T10:27:12;99032.81;;;0.46;48.87
70730;BME280;58315;53.336;55.932;2023-03-03T10:32:55;99037.31;;;0.28;48.86
70730;BME280;58315;53.336;55.932;2023-03-03T10:38:09;99038.44;;;-0.08;49.46
70730;BME280;58315;53.336;55.932;2023-03-03T10:49:19;99038.22;;;-0.03;50.35
70730;BME280;58315;53.336;55.932;2023-03-03T10:59:50;99042.38;;;-0.01;51.66
70730;BME280;58315;53.336;55.932;2023-03-03T11:02:41;99030.56;;;0.10;51.62
70730;BME280;58315;53.336;55.932;2023-03-03T11:05:14;99028.56;;;-0.01;51.25
70730;BME280;58315;53.336;55.932;2023-03-03T11:07:48;99027.06;;;-0.05;51.70
70730;BME280;58315;53.336;55.932;2023-03-03T11:13:20;99025.88;;;0.01;51.89
70730;BME280;58315;53.336;55.932;2023-03-03T11:25:15;99031.50;;;-0.23;53.47
70730;BME280;58315;53.336;55.932;2023-03-03T11:38:56;99017.94;;;-0.28;53.85
70730;BME280;58315;53.336;55.932;2023-03-03T11:44:13;99000.91;;;-0.02;53.01
70730;BME280;58315;53.336;55.932;2023-03-03T11:47:09;99009.41;;;-0.14;53.50
70730;BME280;58315;53.336;55.932;2023-03-03T11:55:18;99000.06;;;-0.18;53.44
70730;BME280;58315;53.336;55.932;2023-03-03T11:57:49;98989.72;;;-0.34;53.71
70730;BME280;58315;53.336;55.932;2023-03-03T12:00:27;98997.81;;;-0.40;53.97
70730;BME280;58315;53.336;55.932;2023-03-03T12:03:00;98990.56;;;-0.65;54.09
70730;BME280;58315;53.336;55.932;2023-03-03T12:08:54;98989.78;;;-0.67;54.48
70730;BME280;58315;53.336;55.932;2023-03-03T12:11:38;98987.53;;;-0.58;54.86
70730;BME280;58315;53.336;55.932;2023-03-03T12:16:58;98978.34;;;-0.47;54.73
70730;BME280;58315;53.336;55.932;2023-03-03T12:27:51;98978.69;;;-0.69;55.84
70730;BME280;58315;53.336;55.932;2023-03-03T12:39:18;98978.06;;;-0.75;56.79
70730;BME280;58315;53.336;55.932;2023-03-03T12:44:25;98972.44;;;-0.83;57.16
70730;BME280;58315;53.336;55.932;2023-03-03T12:49:38;98969.19;;;-0.70;57.29
70730;BME280;58315;53.336;55.932;2023-03-03T13:00:55;98952.69;;;-0.85;56.90
70730;BME280;58315;53.336;55.932;2023-03-03T13:06:33;98950.34;;;-0.74;57.40
70730;BME280;58315;53.336;55.932;2023-03-03T13:09:07;98956.38;;;-0.74;57.31
70730;BME280;58315;53.336;55.932;2023-03-03T13:11:37;98950.97;;;-0.69;56.59
70730;BME280;58315;53.336;55.932;2023-03-03T13:19:50;98959.75;;;-0.56;56.62
70730;BME280;58315;53.336;55.932;2023-03-03T13:22:40;98955.31;;;-0.54;56.63
70730;BME280;58315;53.336;55.932;2023-03-03T13:27:54;98945.75;;;-0.53;56.83
70730;BME280;58315;53.336;55.932;2023-03-03T13:30:26;98950.59;;;-0.63;56.85
70730;BME280;58315;53.336;55.932;2023-03-03T13:33:09;98950.34;;;-0.74;57.45
70730;BME280;58315;53.336;55.932;2023-03-03T13:35:52;98944.66;;;-0.81;57.65
70730;BME280;58315;53.336;55.932;2023-03-03T13:38:25;98937.63;;;-0.94;57.81
70730;BME280;58315;53.336;55.932;2023-03-03T13:43:53;98942.31;;;-1.01;58.85
70730;BME280;58315;53.336;55.932;2023-03-03T14:05:36;98929.75;;;-0.93;58.73
70730;BME280;58315;53.336;55.932;2023-03-03T14:08:58;98918.72;;;-0.97;58.52
70730;BME280;58315;53.336;55.932;2023-03-03T14:13:58;98928.84;;;-0.92;58.62
70730;BME280;58315;53.336;55.932;2023-03-03T14:16:48;98926.75;;;-0.85;58.71
70730;BME280;58315;53.336;55.932;2023-03-03T14:19:33;98917.97;;;-0.99;58.21
70730;BME280;58315;53.336;55.932;2023-03-03T14:22:20;98927.34;;;-0.96;58.64
70730;BME280;58315;53.336;55.932;2023-03-03T14:27:25;98925.75;;;-0.99;58.45
70730;BME280;58315;53.336;55.932;2023-03-03T14:29:51;98931.00;;;-1.00;58.54
70730;BME280;58315;53.336;55.932;2023-03-03T14:32:26;98932.63;;;-0.98;58.44
70730;BME280;58315;53.336;55.932;2023-03-03T14:35:00;98917.38;;;-1.04;59.10
70730;BME280;58315;53.336;55.932;2023-03-03T14:37:41;98925.47;;;-1.10;58.83
70730;BME280;58315;53.336;55.932;2023-03-03T14:42:38;98922.56;;;-1.04;58.64
70730;BME280;58315;53.336;55.932;2023-03-03T14:47:54;98908.66;;;-1.03;59.26
70730;BME280;58315;53.336;55.932;2023-03-03T14:50:37;98911.19;;;-0.85;59.08
70730;BME280;58315;53.336;55.932;2023-03-03T14:53:10;98921.56;;;-0.85;58.34
70730;BME280;58315;53.336;55.932;2023-03-03T14:55:40;98912.84;;;-0.84;59.04
70730;BME280;58315;53.336;55.932;2023-03-03T14:58:43;98914.88;;;-0.74;58.51
70730;BME280;58315;53.336;55.932;2023-03-03T15:01:33;98912.28;;;-0.74;58.79
70730;BME280;58315;53.336;55.932;2023-03-03T15:06:34;98918.66;;;-0.79;58.75
70730;BME280;58315;53.336;55.932;2023-03-03T15:11:45;98918.25;;;-0.87;59.56
70730;BME280;58315;53.336;55.932;2023-03-03T15:14:14;98910.19;;;-0.83;59.37
70730;BME280;58315;53.336;55.932;2023-03-03T15:16:41;98914.38;;;-0.80;59.17
70730;BME280;58315;53.336;55.932;2023-03-03T15:19:43;98912.38;;;-0.75;59.38
70730;BME280;58315;53.336;55.932;2023-03-03T15:27:57;98903.91;;;-0.63;59.70
70730;BME280;58315;53.336;55.932;2023-03-03T15:30:53;98896.13;;;-0.63;59.45
70730;BME280;58315;53.336;55.932;2023-03-03T15:55:28;98891.75;;;-0.62;61.56
70730;BME280;58315;53.336;55.932;2023-03-03T16:00:34;98882.25;;;-0.62;61.55
70730;BME280;58315;53.336;55.932;2023-03-03T16:05:55;98884.75;;;-0.60;61.75
70730;BME280;58315;53.336;55.932;2023-03-03T16:08:51;98886.84;;;-0.51;62.08
70730;BME280;58315;53.336;55.932;2023-03-03T16:14:42;98874.78;;;-0.68;62.50
70730;BME280;58315;53.336;55.932;2023-03-03T16:17:35;98869.84;;;-0.57;62.27
70730;BME280;58315;53.336;55.932;2023-03-03T16:20:23;98867.25;;;-0.57;62.05
70730;BME280;58315;53.336;55.932;2023-03-03T16:28:30;98878.56;;;-0.58;62.49
70730;BME280;58315;53.336;55.932;2023-03-03T16:31:28;98863.72;;;-0.56;62.66
70730;BME280;58315;53.336;55.932;2023-03-03T16:34:16;98864.66;;;-0.57;62.78
70730;BME280;58315;53.336;55.932;2023-03-03T16:42:21;98862.06;;;-0.57;62.96
70730;BME280;58315;53.336;55.932;2023-03-03T16:53:45;98865.88;;;-0.48;62.80
70730;BME280;58315;53.336;55.932;2023-03-03T17:04:40;98869.56;;;-0.36;62.67
70730;BME280;58315;53.336;55.932;2023-03-03T17:07:18;98877.69;;;-0.42;62.21
70730;BME280;58315;53.336;55.932;2023-03-03T17:09:49;98878.28;;;-0.53;62.52
70730;BME280;58315;53.336;55.932;2023-03-03T17:18:10;98878.63;;;-0.43;62.43
70730;BME280;58315;53.336;55.932;2023-03-03T17:20:51;98886.41;;;-0.43;62.43
70730;BME280;58315;53.336;55.932;2023-03-03T17:32:28;98891.72;;;-0.31;62.57
70730;BME280;58315;53.336;55.932;2023-03-03T17:38:32;98881.06;;;-0.26;62.66
70730;BME280;58315;53.336;55.932;2023-03-03T17:45:58;98882.25;;;-0.02;62.00
70730;BME280;58315;53.336;55.932;2023-03-03T17:51:48;98888.66;;;0.07;61.50
70730;BME280;58315;53.336;55.932;2023-03-03T18:02:49;98892.47;;;0.02;62.58
70730;BME280;58315;53.336;55.932;2023-03-03T18:21:29;98916.56;;;0.19;61.76
70730;BME280;58315;53.336;55.932;2023-03-03T18:26:51;98918.66;;;0.13;61.49
70730;BME280;58315;53.336;55.932;2023-03-03T18:29:21;98936.13;;;0.25;61.05
70730;BME280;58315;53.336;55.932;2023-03-03T18:34:28;98937.78;;;0.12;61.74
70730;BME280;58315;53.336;55.932;2023-03-03T18:36:59;98944.13;;;0.22;61.58
70730;BME280;58315;53.336;55.932;2023-03-03T18:39:41;98937.75;;;0.42;61.26
70730;BME280;58315;53.336;55.932;2023-03-03T18:44:45;98945.19;;;0.34;61.49
70730;BME280;58315;53.336;55.932;2023-03-03T18:47:14;98941.16;;;0.28;61.55
70730;BME280;58315;53.336;55.932;2023-03-03T18:52:33;98956.56;;;0.31;61.34